Terminal Aerodrome Forecast
Issued by NWS Northern Indiana

Home | Current Version | Previous Version | Text Only | Print | Product List | Glossary On
Versions: 1 2 3 4 5 6 7 8 9 10 11 12 13 14 15 16 17
000
FTUS43 KIWX 012336
TAFFWA
TAF
KFWA 012336Z 0200/0224 35004KT P6SM SCT150 BKN250
     FM020900 04003KT 6SM BR SCT250
      TEMPO 0210/0212 3SM BR
     FM021200 06006KT P6SM BKN020
     FM021400 07010KT P6SM SCT040=

USA.gov is the U.S. government's official web portal to all federal, state and local government web resources and services.